Time;durP1;ratioP1;P1;durP2;ratioP2;P2;SDS_P1;SDS_P2;PMS_P1;PMS_P2;Temp;Humidity;BMP_temperature;BMP_pressure;BME280_temperature;BME280_humidity;BME280_pressure;Samples;Min_cycle;Max_cycle;Signal;HPM_P1;HPM_P2
2021/07/09 00:02:11;;;;;;;2.40;2.20;;;19.90;99.90;;;19.78;100.00;100662.00;3517944;39;101411;-83
2021/07/09 00:04:38;;;;;;;3.45;2.65;;;19.90;99.90;;;19.79;100.00;100666.38;3519566;39;101038;-82
2021/07/09 00:07:07;;;;;;;3.60;2.83;;;20.00;99.90;;;19.80;100.00;100654.47;3518405;39;100028;-81
2021/07/09 00:09:34;;;;;;;2.65;2.15;;;19.90;99.90;;;19.76;100.00;100643.22;3519402;39;100170;-81
2021/07/09 00:12:02;;;;;;;2.47;2.03;;;19.90;99.90;;;19.77;100.00;100644.88;3514410;39;100943;-83
2021/07/09 00:14:31;;;;;;;3.17;2.88;;;21.00;99.90;;;19.78;100.00;100641.09;3518460;39;101411;-84
2021/07/09 00:16:59;;;;;;;3.33;3.00;;;20.90;99.90;;;19.74;100.00;100631.72;3513711;39;100468;-81
2021/07/09 00:19:26;;;;;;;2.47;2.20;;;19.90;99.90;;;19.70;100.00;100625.03;3541540;39;100393;-84
2021/07/09 00:21:53;;;;;;;2.38;2.17;;;19.90;99.90;;;19.70;100.00;100619.59;3527828;39;102615;-82
2021/07/09 00:24:22;;;;;;;4.22;2.75;;;19.90;99.90;;;19.70;100.00;100625.84;3519211;39;100758;-80
2021/07/09 00:26:49;;;;;;;3.42;3.13;;;19.00;99.90;;;19.68;100.00;100625.22;3520818;39;100729;-84
2021/07/09 00:29:16;;;;;;;4.35;2.70;;;20.20;99.90;;;19.73;100.00;100638.19;3519492;39;100039;-83
2021/07/09 00:31:43;;;;;;;3.75;2.92;;;19.80;99.90;;;19.71;100.00;100637.56;3525453;39;103006;-82
2021/07/09 00:34:11;;;;;;;2.95;2.58;;;19.80;99.90;;;19.68;100.00;100633.38;3518612;39;101067;-83
2021/07/09 00:36:38;;;;;;;3.03;2.70;;;19.80;99.90;;;19.65;100.00;100644.69;3525753;39;100425;-80
2021/07/09 00:39:08;;;;;;;2.72;2.53;;;19.80;99.90;;;19.67;100.00;100656.13;3531229;39;100250;-83
2021/07/09 00:41:37;;;;;;;4.82;3.00;;;20.50;99.90;;;19.66;100.00;100659.88;3528119;39;103117;-82
2021/07/09 00:44:06;;;;;;;3.28;2.90;;;19.80;99.90;;;19.64;100.00;100662.00;3537949;39;100987;-81
2021/07/09 00:46:36;;;;;;;4.47;3.50;;;19.80;99.90;;;19.67;100.00;100658.84;3537817;39;100645;-83
2021/07/09 00:49:04;;;;;;;3.47;2.90;;;19.70;99.90;;;19.62;100.00;100666.81;3539706;39;100155;-84
2021/07/09 00:51:31;;;;;;;3.20;2.45;;;19.80;99.90;;;19.64;100.00;100663.88;3537533;39;101281;-82
2021/07/09 00:53:59;;;;;;;3.35;3.05;;;19.80;99.90;;;19.57;100.00;100655.72;3517212;39;103803;-83
2021/07/09 00:56:27;;;;;;;4.97;2.88;;;19.70;99.90;;;19.54;100.00;100647.97;3526106;39;100621;-83
2021/07/09 00:58:58;;;;;;;3.08;2.78;;;19.70;99.90;;;19.50;100.00;100646.75;3530529;39;100186;-83
2021/07/09 01:01:25;;;;;;;3.28;2.72;;;19.70;99.90;;;19.47;100.00;100644.41;3550905;39;99521;-84
2021/07/09 01:03:52;;;;;;;2.53;2.15;;;19.60;99.90;;;19.43;100.00;100643.13;3584747;22;101636;-84
2021/07/09 01:06:19;;;;;;;2.70;2.47;;;19.60;99.90;;;19.44;100.00;100657.53;3550545;39;100213;-84
2021/07/09 01:08:47;;;;;;;2.72;2.53;;;20.20;99.90;;;19.44;100.00;100658.38;3545332;39;101575;-85
2021/07/09 01:11:14;;;;;;;2.72;2.53;;;19.50;99.90;;;19.38;100.00;100648.38;3537834;39;100765;-86
2021/07/09 01:13:42;;;;;;;2.50;2.30;;;20.50;99.90;;;19.44;100.00;100658.38;3541085;39;100396;-86
2021/07/09 01:16:13;;;;;;;3.83;2.63;;;19.40;99.90;;;19.43;100.00;100653.16;3543543;39;100855;-84
2021/07/09 01:18:41;;;;;;;3.15;2.83;;;19.50;99.90;;;19.39;100.00;100650.03;3525160;39;99973;-84
2021/07/09 01:21:09;;;;;;;4.35;3.03;;;19.40;99.90;;;19.32;100.00;100647.31;3537690;39;100735;-85
2021/07/09 01:23:38;;;;;;;3.00;2.50;;;19.40;99.90;;;19.34;100.00;100645.22;3539455;39;101171;-85
2021/07/09 01:26:09;;;;;;;2.83;2.50;;;19.70;99.90;;;19.35;100.00;100651.50;3530036;39;102406;-85
2021/07/09 01:28:38;;;;;;;3.63;2.75;;;19.30;99.90;;;19.37;100.00;100644.81;3552423;39;100092;-86
2021/07/09 01:31:07;;;;;;;3.40;3.10;;;19.40;99.90;;;19.34;100.00;100641.69;3544441;39;100915;-85
2021/07/09 01:33:35;;;;;;;3.67;2.72;;;19.30;99.90;;;19.43;100.00;100634.16;3525540;39;101660;-85
2021/07/09 01:36:02;;;;;;;4.22;2.78;;;20.10;99.90;;;19.42;100.00;100629.78;3529365;39;102934;-85
2021/07/09 01:38:29;;;;;;;4.85;3.17;;;19.80;99.90;;;19.34;100.00;100636.25;3546396;39;100041;-85
2021/07/09 01:40:56;;;;;;;4.03;3.28;;;19.80;99.90;;;19.37;100.00;100642.09;3544085;39;102942;-86
2021/07/09 01:43:25;;;;;;;3.80;2.67;;;19.30;99.90;;;19.40;100.00;100642.75;3545036;39;101829;-87
2021/07/09 01:46:28;;;;;;;4.05;2.97;;;19.30;99.90;;;19.35;100.00;100646.91;3621641;22;100494;-84
2021/07/09 01:49:39;;;;;;;3.00;2.70;;;19.30;99.90;;;19.33;100.00;100645.44;3544350;39;101082;-85
2021/07/09 01:52:52;;;;;;;4.68;3.47;;;19.80;99.90;;;19.32;100.00;100635.63;3585185;22;104579;-83
2021/07/09 01:56:03;;;;;;;8.45;3.03;;;19.20;99.90;;;19.37;100.00;100630.41;3542218;39;101538;-87
2021/07/09 01:59:17;;;;;;;2.95;2.75;;;19.50;99.90;;;19.31;100.00;100634.78;3549117;39;100434;-84
2021/07/09 02:02:28;;;;;;;3.30;2.97;;;19.30;99.90;;;19.26;100.00;100631.03;3551656;39;100710;-84
2021/07/09 02:05:10;;;;;;;5.75;3.67;;;19.50;99.90;;;19.31;100.00;100639.38;3580462;22;101663;-86
2021/07/09 02:07:38;;;;;;;5.93;3.47;;;19.10;99.90;;;19.25;100.00;100648.34;3536854;39;103305;-87
2021/07/09 02:10:08;;;;;;;4.53;3.35;;;19.10;99.90;;;19.32;100.00;100660.03;3614078;22;105132;-87
2021/07/09 02:12:37;;;;;;;7.55;4.50;;;19.10;99.90;;;19.26;100.00;100669.84;3566992;39;101293;-84
2021/07/09 02:15:10;;;;;;;8.52;3.20;;;19.10;99.90;;;19.23;100.00;100674.84;3565169;39;100872;-86
2021/07/09 02:17:39;;;;;;;5.70;4.38;;;19.10;99.90;;;19.15;100.00;100684.00;3552046;39;103177;-87
2021/07/09 02:20:10;;;;;;;3.63;2.78;;;20.30;99.90;;;19.18;100.00;100688.16;3568552;39;101262;-85
2021/07/09 02:22:37;;;;;;;4.03;3.30;;;19.10;99.90;;;19.17;100.00;100691.91;3565850;39;100080;-85
2021/07/09 02:25:42;;;;;;;4.20;3.80;;;19.80;99.90;;;19.24;100.00;100704.47;3695449;22;105165;-88
2021/07/09 02:28:54;;;;;;;3.50;2.88;;;19.10;99.90;;;19.23;100.00;100688.41;3630919;22;102400;-86
2021/07/09 02:32:08;;;;;;;4.57;3.40;;;19.00;99.90;;;19.16;100.00;100685.69;3566233;39;100850;-88
2021/07/09 02:34:44;;;;;;;5.88;4.00;;;19.00;99.90;;;19.12;100.00;100683.56;3213943;22;105464;-86
2021/07/09 02:37:12;;;;;;;4.53;3.85;;;18.00;99.90;;;19.18;100.00;100670.03;3412318;22;107969;-88
2021/07/09 02:39:41;;;;;;;5.25;4.18;;;20.00;99.90;;;19.16;100.00;100672.13;2948831;22;107264;31
2021/07/09 02:42:30;;;;;;;5.38;4.05;;;18.90;99.90;;;19.18;100.00;100666.47;1753864;22;105328;-92
2021/07/09 02:44:57;;;;;;;5.35;4.35;;;19.00;99.90;;;19.11;100.00;100655.63;3560352;22;107480;31
2021/07/09 02:47:26;;;;;;;5.95;4.50;;;19.60;99.90;;;19.15;100.00;100661.47;3700712;22;107149;-87
2021/07/09 02:50:31;;;;;;;4.60;4.03;;;18.90;99.90;;;19.24;100.00;100661.06;3613137;22;107772;-89
2021/07/09 02:53:08;;;;;;;4.85;4.40;;;18.90;99.90;;;19.22;100.00;100660.44;3139057;22;107502;-87
2021/07/09 02:55:35;;;;;;;4.78;3.65;;;19.20;99.90;;;19.16;100.00;100665.88;3666398;22;105738;-86
2021/07/09 02:58:03;;;;;;;6.10;4.15;;;18.90;99.90;;;19.08;100.00;100666.03;3532775;22;107907;-85
2021/07/09 03:00:31;;;;;;;6.85;4.88;;;18.90;99.90;;;19.07;100.00;100665.19;3712080;22;104659;-90
2021/07/09 03:03:01;;;;;;;7.13;4.38;;;19.80;99.90;;;19.13;100.00;100664.38;3625609;22;105169;-87
2021/07/09 03:05:28;;;;;;;3.90;3.47;;;18.60;99.90;;;19.10;100.00;100661.25;2885608;22;106676;-88
2021/07/09 03:07:59;;;;;;;4.82;4.28;;;19.80;99.90;;;19.15;100.00;100647.91;3138992;22;105550;-87
2021/07/09 03:10:26;;;;;;;5.22;4.20;;;19.60;99.90;;;19.11;100.00;100638.50;3294785;22;106149;-89
2021/07/09 03:13:30;;;;;;;4.55;3.90;;;19.70;99.90;;;19.14;100.00;100628.09;2807819;22;107203;-89
2021/07/09 03:16:08;;;;;;;5.35;4.38;;;18.80;99.90;;;19.10;100.00;100615.97;2931554;22;106565;31
2021/07/09 03:18:38;;;;;;;4.70;3.95;;;19.80;99.90;;;19.13;100.00;100610.13;3149796;22;107508;-92
2021/07/09 03:21:07;;;;;;;5.85;5.15;;;18.80;99.90;;;19.11;100.00;100604.09;3642867;22;105587;-92
2021/07/09 03:23:37;;;;;;;6.80;4.93;;;18.80;99.90;;;19.11;100.00;100606.78;2602928;22;107237;-91
2021/07/09 03:26:06;;;;;;;5.93;4.63;;;19.90;99.90;;;19.10;100.00;100601.56;3149981;22;109022;-92
2021/07/09 03:28:34;;;;;;;4.32;3.85;;;19.60;99.90;;;19.10;100.00;100605.13;2618708;22;107386;-86
2021/07/09 03:31:40;;;;;;;7.00;4.95;;;19.80;99.90;;;19.15;100.00;100608.06;2592869;22;108159;-89
2021/07/09 03:34:18;;;;;;;7.75;5.07;;;18.80;99.90;;;19.14;100.00;100578.44;3125103;22;107373;-90
2021/07/09 03:36:48;;;;;;;8.88;4.15;;;19.90;99.90;;;19.11;100.00;100560.69;3636926;22;105835;-90
2021/07/09 03:39:16;;;;;;;7.80;4.32;;;19.30;99.90;;;19.11;100.00;100549.84;3677025;22;105491;-90
2021/07/09 03:42:20;;;;;;;6.35;5.13;;;18.70;99.90;;;19.10;100.00;100556.31;3538730;22;107196;-89
2021/07/09 03:45:00;;;;;;;4.70;3.85;;;18.90;99.90;;;19.13;100.00;100527.94;3325403;22;107542;-91
2021/07/09 03:47:28;;;;;;;5.00;3.85;;;19.90;99.90;;;19.11;100.00;100530.00;2935385;22;107623;-87
2021/07/09 03:49:56;;;;;;;4.90;3.70;;;19.90;99.90;;;19.10;100.00;100522.91;3567216;39;103324;-86
2021/07/09 03:52:24;;;;;;;5.88;3.80;;;20.00;99.90;;;19.02;100.00;100529.41;3580019;22;106058;-91
2021/07/09 03:55:31;;;;;;;6.15;3.00;;;18.70;99.90;;;19.14;100.00;100516.03;3259472;22;105929;-90
2021/07/09 03:58:07;;;;;;;5.00;3.83;;;18.70;99.90;;;19.09;100.00;100453.44;3274354;22;108720;-88
2021/07/09 04:00:34;;;;;;;4.00;3.60;;;19.10;99.90;;;19.07;100.00;100429.25;3671687;22;105019;-86
2021/07/09 04:03:01;;;;;;;6.47;4.43;;;18.70;99.90;;;19.06;100.00;100434.88;3668080;22;105866;-86
2021/07/09 04:05:30;;;;;;;5.25;4.30;;;18.70;99.90;;;19.11;100.00;100459.50;3628243;22;102297;-86
2021/07/09 04:07:57;;;;;;;5.45;4.30;;;18.70;99.90;;;19.08;100.00;100474.31;3633713;22;104527;-87
2021/07/09 04:10:24;;;;;;;5.47;3.60;;;18.60;99.90;;;19.03;100.00;100471.41;3216807;22;107124;-87
2021/07/09 04:13:28;;;;;;;5.55;3.70;;;18.60;99.90;;;19.09;100.00;100483.28;3539503;22;106035;31
2021/07/09 04:16:05;;;;;;;6.15;3.13;;;18.70;99.90;;;19.09;100.00;100497.66;3602311;22;105632;-86
2021/07/09 04:18:34;;;;;;;3.83;3.42;;;18.60;99.90;;;19.04;100.00;100508.28;3583430;39;101895;-89
2021/07/09 04:21:40;;;;;;;4.90;4.28;;;19.80;99.90;;;19.10;100.00;100533.78;2889249;22;104974;-89
2021/07/09 04:24:16;;;;;;;5.00;3.35;;;18.70;99.90;;;19.12;100.00;100537.13;3358331;22;104218;-88
2021/07/09 04:26:43;;;;;;;4.05;3.67;;;18.60;99.90;;;19.09;100.00;100537.50;3589873;22;107367;-89
2021/07/09 04:31:46;;;;;;;5.13;4.25;;;18.70;99.90;;;19.17;100.00;100543.56;3135715;22;107441;-88
2021/07/09 04:34:49;;;;;;;5.45;4.07;;;19.40;99.90;;;19.17;100.00;100540.84;3453943;22;107738;-85
2021/07/09 04:37:27;;;;;;;4.97;4.00;;;19.20;99.90;;;19.27;100.00;100545.88;3524038;22;105596;-85
2021/07/09 04:39:54;;;;;;;5.95;4.78;;;19.90;99.90;;;19.11;100.00;100532.72;3552286;39;100329;-89
2021/07/09 04:42:21;;;;;;;8.10;4.63;;;18.80;99.90;;;19.11;100.00;100517.28;3477712;22;107074;-86
2021/07/09 04:45:25;;;;;;;6.75;4.40;;;18.80;99.90;;;19.18;100.00;100514.56;3667611;22;103916;-87
2021/07/09 04:48:01;;;;;;;4.28;3.35;;;18.70;99.90;;;19.23;100.00;100517.50;3223941;22;105347;-86
2021/07/09 04:50:28;;;;;;;8.43;4.78;;;19.80;99.90;;;19.22;100.00;100519.38;3311810;22;108105;-86
2021/07/09 04:52:58;;;;;;;6.05;4.70;;;18.80;99.90;;;19.22;100.00;100529.38;3379195;22;106672;31
2021/07/09 04:55:26;;;;;;;7.15;4.30;;;18.80;99.90;;;19.22;100.00;100523.97;3103631;22;107910;-88
2021/07/09 04:57:53;;;;;;;5.70;4.03;;;18.80;99.90;;;19.18;100.00;100520.00;3257010;22;106795;-83
2021/07/09 05:00:20;;;;;;;6.57;4.72;;;18.80;99.90;;;19.16;100.00;100532.94;2871238;22;107347;-84
2021/07/09 05:03:24;;;;;;;5.07;3.92;;;19.90;99.90;;;19.24;100.00;100532.72;3058524;22;106978;-87
2021/07/09 05:06:36;;;;;;;5.75;4.32;;;18.90;99.90;;;19.22;100.00;100518.53;3294000;22;108095;-89
2021/07/09 05:11:44;;;;;;;6.95;5.05;;;19.00;99.90;;;19.24;100.00;100525.44;3593750;22;102511;-88
2021/07/09 05:14:15;;;;;;;5.78;3.55;;;18.90;99.90;;;19.28;100.00;100526.69;3288204;22;108529;-89
2021/07/09 05:16:44;;;;;;;5.32;4.40;;;19.00;99.90;;;19.24;100.00;100514.59;3602090;22;103324;31
2021/07/09 05:19:15;;;;;;;4.38;3.80;;;19.00;99.90;;;19.27;100.00;100518.75;3043671;22;107029;-81
2021/07/09 05:21:43;;;;;;;5.95;4.38;;;19.00;99.90;;;19.27;100.00;100521.47;3180133;22;107077;-88
2021/07/09 05:24:12;;;;;;;5.70;3.95;;;20.30;99.90;;;19.35;100.00;100521.25;3522210;22;1201063;-85
2021/07/09 05:26:39;;;;;;;6.38;4.60;;;19.00;99.90;;;19.38;100.00;100515.41;3165868;22;106461;-85
2021/07/09 05:29:44;;;;;;;5.10;4.20;;;19.10;99.90;;;19.33;100.00;100513.31;3579813;22;105055;-84
2021/07/09 05:32:24;;;;;;;5.68;4.05;;;19.10;99.90;;;19.27;100.00;100506.03;3394380;22;106792;-88
2021/07/09 05:34:53;;;;;;;8.20;5.13;;;20.30;99.90;;;19.28;100.00;100509.56;3379607;22;108498;-86
2021/07/09 05:37:47;;;;;;;6.80;5.47;;;19.60;99.90;;;19.30;100.00;100515.59;3640657;22;105815;31
2021/07/09 05:40:23;;;;;;;4.90;4.35;;;19.20;99.90;;;19.31;100.00;100506.44;3608643;22;104389;-90
2021/07/09 05:42:50;;;;;;;6.72;4.53;;;19.10;99.90;;;19.27;100.00;100505.19;2674894;22;109077;-86
2021/07/09 05:45:22;;;;;;;5.70;4.68;;;20.30;99.90;;;19.25;100.00;100510.81;2974060;22;106390;-90
2021/07/09 05:47:49;;;;;;;11.00;5.28;;;19.20;99.90;;;19.23;100.00;100504.78;2930323;22;107015;-87
2021/07/09 05:50:17;;;;;;;7.00;5.18;;;20.40;99.90;;;19.23;100.00;100510.19;2867316;22;107037;-89
2021/07/09 05:52:44;;;;;;;5.80;5.18;;;18.80;99.90;;;19.25;100.00;100501.84;3591157;22;101925;-85
2021/07/09 05:55:13;;;;;;;5.90;5.30;;;18.90;99.90;;;19.36;100.00;100499.34;3644432;22;104437;-88
2021/07/09 05:57:40;;;;;;;8.57;5.65;;;19.20;99.90;;;19.33;100.00;100507.06;3545498;22;107526;-83
2021/07/09 06:00:11;;;;;;;8.68;5.95;;;19.20;99.90;;;19.37;100.00;100511.88;3550532;39;102211;-86
2021/07/09 06:02:40;;;;;;;9.00;6.85;;;19.20;99.90;;;19.36;100.00;100517.50;3601539;22;100601;31
2021/07/09 06:05:10;;;;;;;9.23;6.28;;;20.10;99.90;;;19.44;100.00;100519.16;3259284;22;107460;-84
2021/07/09 06:08:06;;;;;;;10.10;6.40;;;19.20;99.90;;;19.54;100.00;100522.28;3103681;22;107732;-89
2021/07/09 06:11:09;;;;;;;11.25;6.93;;;19.30;99.90;;;19.61;100.00;100523.13;3366310;22;107799;-84
2021/07/09 06:13:48;;;;;;;12.07;7.35;;;19.30;99.90;;;19.49;100.00;100528.38;3633947;22;100834;-91
2021/07/09 06:16:16;;;;;;;17.50;8.15;;;19.80;99.90;;;19.61;100.00;100537.53;3555529;39;103450;-86
2021/07/09 06:19:21;;;;;;;11.27;7.57;;;19.10;99.90;;;19.50;100.00;100532.75;3456131;22;106920;-87
2021/07/09 06:22:33;;;;;;;7.97;6.95;;;19.50;99.90;;;19.63;100.00;100531.91;3549886;22;106567;-84
2021/07/09 06:27:36;;;;;;;11.68;6.78;;;19.50;99.90;;;19.62;100.00;100520.22;3528191;39;102403;-84
2021/07/09 06:30:06;;;;;;;9.52;6.78;;;19.40;99.90;;;19.65;100.00;100508.94;3535367;39;100584;-85
2021/07/09 06:33:09;;;;;;;9.38;7.32;;;19.60;99.90;;;19.80;100.00;100497.81;2900371;22;103833;-85
2021/07/09 06:35:46;;;;;;;10.18;6.75;;;19.70;99.90;;;19.80;100.00;100496.97;3616565;22;105131;-89
2021/07/09 06:38:14;;;;;;;8.68;6.18;;;20.80;99.90;;;19.92;100.00;100503.41;3663612;22;104872;-87
2021/07/09 06:40:43;;;;;;;8.30;6.63;;;21.00;99.90;;;19.92;100.00;100496.09;3572523;22;105744;-87
2021/07/09 06:43:12;;;;;;;11.40;7.22;;;20.10;99.90;;;19.79;100.00;100490.72;3176202;22;105024;-93
2021/07/09 06:45:39;;;;;;;8.32;5.00;;;20.10;99.90;;;20.09;100.00;100491.88;3563181;22;106543;-84
2021/07/09 06:48:42;;;;;;;9.50;6.20;;;20.00;99.90;;;20.15;100.00;100484.75;3469956;22;107496;-85
2021/07/09 06:51:56;;;;;;;9.95;6.30;;;20.10;99.90;;;20.05;100.00;100481.66;3689091;22;104669;-86
2021/07/09 06:54:32;;;;;;;7.32;5.57;;;20.20;99.90;;;20.17;100.00;100469.06;3651009;22;102507;-85
2021/07/09 06:56:59;;;;;;;13.65;7.15;;;20.00;99.90;;;19.98;100.00;100461.84;3654172;22;105304;-85
2021/07/09 06:59:26;;;;;;;9.85;7.35;;;20.70;99.90;;;19.98;100.00;100465.38;3588753;22;106000;-90
2021/07/09 07:02:29;;;;;;;9.43;7.35;;;20.70;99.90;;;20.25;100.00;100457.94;3120414;22;105869;-90
2021/07/09 07:05:42;;;;;;;10.52;7.20;;;20.30;99.90;;;20.33;100.00;100448.72;3581907;22;100115;-84
2021/07/09 07:08:23;;;;;;;7.35;6.20;;;20.40;99.90;;;20.38;100.00;100444.31;3688199;22;101171;-84
2021/07/09 07:10:53;;;;;;;6.47;5.20;;;20.50;99.90;;;20.25;100.00;100432.66;3635064;22;101318;-89
2021/07/09 07:13:20;;;;;;;9.15;5.95;;;20.60;99.90;;;20.31;100.00;100431.78;3624935;22;101982;-83
2021/07/09 07:15:48;;;;;;;7.43;5.28;;;20.60;99.90;;;20.21;100.00;100420.56;3558818;22;100983;-84
2021/07/09 07:18:16;;;;;;;7.25;4.95;;;20.60;99.90;;;20.52;100.00;100415.19;3587037;22;104243;-83
2021/07/09 07:20:46;;;;;;;8.85;5.32;;;20.60;99.90;;;20.55;100.00;100408.44;3439840;22;105379;-83
2021/07/09 07:23:16;;;;;;;6.32;4.85;;;20.80;99.90;;;20.35;100.00;100394.97;3543808;22;106259;-92
2021/07/09 07:25:48;;;;;;;11.15;5.53;;;21.10;99.90;;;20.88;100.00;100397.31;3563092;23;101830;-84
2021/07/09 07:28:17;;;;;;;8.13;4.53;;;21.00;99.90;;;20.80;100.00;100387.53;3175047;22;107843;-89
2021/07/09 07:30:44;;;;;;;5.70;4.45;;;21.10;99.90;;;20.96;100.00;100383.44;3531572;22;107108;-84
2021/07/09 07:33:48;;;;;;;7.97;4.13;;;21.20;99.90;;;21.13;100.00;100365.50;3654378;22;104578;-84
2021/07/09 07:36:59;;;;;;;6.53;4.68;;;21.90;99.90;;;20.94;100.00;100355.63;3557100;39;103126;-85
2021/07/09 07:40:11;;;;;;;6.40;4.78;;;21.70;99.90;;;21.35;100.00;100346.84;3644228;22;105230;-85
2021/07/09 07:42:49;;;;;;;5.30;4.35;;;21.70;99.90;;;21.37;100.00;100340.13;3630630;22;101998;-88
2021/07/09 07:45:17;;;;;;;4.82;3.58;;;22.20;99.90;;;21.67;100.00;100328.44;3379424;22;106808;-88
2021/07/09 07:47:44;;;;;;;5.15;3.90;;;22.20;99.90;;;21.38;100.00;100316.47;3609133;22;101269;-83
2021/07/09 07:50:13;;;;;;;4.75;3.97;;;22.40;99.90;;;22.01;100.00;100305.97;3547535;39;100524;-83
2021/07/09 07:53:16;;;;;;;4.85;3.22;;;22.60;99.90;;;22.05;100.00;100290.00;3535200;22;107426;-85
2021/07/09 07:55:51;;;;;;;3.45;3.10;;;22.80;99.90;;;22.64;100.00;100290.91;3602784;22;103676;-82
2021/07/09 07:58:20;;;;;;;5.18;3.78;;;23.10;99.90;;;22.23;100.00;100270.03;3567526;22;102119;-83
2021/07/09 08:01:25;;;;;;;3.38;3.08;;;23.40;99.90;;;21.75;100.00;100255.44;3526531;22;107482;-86
2021/07/09 08:04:37;;;;;;;5.30;3.00;;;23.70;99.90;;;21.60;100.00;100262.34;3631846;22;104771;-85
2021/07/09 08:07:14;;;;;;;4.78;2.97;;;23.60;99.90;;;21.55;100.00;100268.47;3362898;22;106931;-86
2021/07/09 08:10:17;;;;;;;6.15;3.75;;;23.50;99.90;;;21.40;100.00;100270.78;3562789;22;103454;-87
2021/07/09 08:12:53;;;;;;;3.42;3.05;;;23.40;99.90;;;21.42;100.00;100271.38;3319881;22;107545;-82
2021/07/09 08:15:58;;;;;;;2.45;2.25;;;23.20;99.90;;;21.70;100.00;100271.63;3630594;22;105338;-83
2021/07/09 08:18:35;;;;;;;2.72;2.42;;;23.10;99.90;;;21.31;100.00;100274.88;3427372;22;106519;-83
2021/07/09 08:21:02;;;;;;;3.53;3.22;;;23.00;99.90;;;21.11;100.00;100275.94;3466077;22;106579;-89
2021/07/09 08:23:30;;;;;;;4.38;2.90;;;22.90;99.90;;;21.08;100.00;100294.59;3590773;22;104774;-87
2021/07/09 08:25:58;;;;;;;6.00;3.55;;;22.70;99.90;;;21.02;100.00;100298.19;3580131;22;101386;-84
2021/07/09 08:29:01;;;;;;;3.60;3.20;;;22.80;99.90;;;21.00;100.00;100305.78;3541534;22;107277;-82
2021/07/09 08:31:38;;;;;;;4.25;3.83;;;23.40;99.90;;;21.00;100.00;100319.38;3598338;22;103775;-86
2021/07/09 08:34:05;;;;;;;3.67;3.28;;;22.20;99.90;;;21.06;100.00;100311.13;3573588;22;104193;-85
2021/07/09 08:36:32;;;;;;;2.95;2.65;;;22.10;99.90;;;21.13;100.00;100317.34;3537464;39;100891;-82
2021/07/09 08:38:59;;;;;;;5.70;3.45;;;22.10;99.90;;;21.07;100.00;100334.56;3487459;22;105303;-87
2021/07/09 08:41:26;;;;;;;3.80;2.78;;;21.70;99.90;;;21.09;100.00;100329.72;3505078;22;105731;-82
2021/07/09 08:44:39;;;;;;;4.80;3.17;;;22.10;99.90;;;21.27;100.00;100336.25;3617905;22;103983;-85
2021/07/09 08:47:16;;;;;;;4.85;3.63;;;22.10;99.90;;;21.11;100.00;100338.50;3770026;22;104923;-86
2021/07/09 08:49:47;;;;;;;4.85;3.60;;;22.10;99.90;;;21.26;100.00;100343.63;3311391;22;107305;-82
2021/07/09 08:52:14;;;;;;;6.28;4.75;;;22.10;99.90;;;21.39;100.00;100348.88;3588805;22;103788;-86
2021/07/09 08:55:19;;;;;;;6.78;4.28;;;22.90;99.90;;;21.37;100.00;100344.75;3646777;22;103454;-87
2021/07/09 08:58:31;;;;;;;3.38;3.08;;;22.20;99.90;;;21.40;100.00;100353.25;3530085;39;101655;-82
2021/07/09 09:01:56;;;;;;;7.18;3.45;;;22.10;99.90;;;21.36;100.00;100346.63;3510987;39;101371;-82
2021/07/09 09:05:12;;;;;;;2.72;2.53;;;22.40;99.90;;;21.48;100.00;100347.53;3650807;22;105544;-87
2021/07/09 09:07:58;;;;;;;3.33;2.33;;;23.30;99.90;;;21.62;100.00;100339.22;3586620;22;104697;-86
2021/07/09 09:10:34;;;;;;;3.42;2.90;;;22.60;99.90;;;21.59;100.00;100326.88;3530289;39;101871;-81
2021/07/09 09:13:07;;;;;;;4.63;2.88;;;23.40;99.90;;;22.06;100.00;100318.91;3527927;39;100598;-82
2021/07/09 09:15:36;;;;;;;3.28;2.15;;;22.50;99.90;;;22.30;100.00;100311.63;3566526;22;105216;-87
2021/07/09 09:18:18;;;;;;;5.40;3.10;;;21.90;99.90;;;22.95;100.00;100290.59;3598478;22;104825;-82
2021/07/09 09:20:56;;;;;;;3.78;2.53;;;23.00;99.90;;;22.75;100.00;100281.94;3625478;22;105766;-87
2021/07/09 09:23:23;;;;;;;4.55;2.35;;;23.40;99.90;;;23.72;100.00;100276.66;3598717;22;106332;-87
2021/07/09 09:25:51;;;;;;;3.70;2.50;;;24.60;99.90;;;22.71;100.00;100267.94;3697258;22;104261;-82
2021/07/09 09:28:18;;;;;;;3.20;2.13;;;25.30;99.90;;;22.68;100.00;100262.94;3615614;22;105320;-88
2021/07/09 09:30:53;;;;;;;2.58;2.10;;;24.70;99.90;;;22.72;100.00;100255.13;3537045;39;103255;-83
2021/07/09 09:33:20;;;;;;;4.63;1.88;;;25.30;99.90;;;22.81;100.00;100254.53;3585478;22;104734;-84
2021/07/09 09:35:55;;;;;;;4.15;2.88;;;24.60;99.90;;;22.60;100.00;100243.38;3557031;39;100106;-81
2021/07/09 09:38:27;;;;;;;2.80;2.55;;;24.60;99.90;;;22.90;100.00;100244.91;3585160;22;101683;-84
2021/07/09 09:40:56;;;;;;;4.35;2.03;;;24.60;99.90;;;23.21;100.00;100243.69;3550345;39;100749;-86
2021/07/09 09:43:25;;;;;;;2.65;2.25;;;24.60;99.90;;;23.06;100.00;100226.16;3576494;22;101911;-85
2021/07/09 09:46:03;;;;;;;2.97;1.95;;;24.90;99.90;;;23.25;100.00;100230.34;3586403;22;101126;-85
2021/07/09 09:48:46;;;;;;;2.22;1.65;;;25.80;99.90;;;22.88;100.00;100213.47;3546048;39;100542;-85
2021/07/09 09:51:28;;;;;;;4.10;2.92;;;24.80;99.90;;;22.85;100.00;100216.72;3645490;22;103579;-84
2021/07/09 09:53:59;;;;;;;4.00;2.63;;;25.00;99.90;;;22.79;100.00;100223.09;3593936;22;101407;-83
2021/07/09 09:56:36;;;;;;;3.15;2.00;;;25.80;99.90;;;22.75;100.00;100221.91;3533671;39;101266;-81
2021/07/09 09:59:16;;;;;;;3.67;2.83;;;25.50;99.90;;;22.42;100.00;100215.16;3551884;39;100147;-85
2021/07/09 10:01:52;;;;;;;3.65;2.40;;;25.00;99.90;;;22.43;100.00;100222.28;3535077;39;101369;-83
2021/07/09 10:04:21;;;;;;;3.60;2.58;;;24.60;99.90;;;22.53;100.00;100222.50;3536718;39;101561;-82
2021/07/09 10:06:50;;;;;;;2.60;1.90;;;24.60;99.90;;;22.97;100.00;100222.97;3542675;39;100481;-84
2021/07/09 10:09:19;;;;;;;3.47;2.33;;;24.50;99.90;;;22.74;100.00;100228.44;3545390;39;100056;-84
2021/07/09 10:11:48;;;;;;;4.60;2.92;;;24.60;99.90;;;22.47;100.00;100226.19;3537084;39;100906;-84
2021/07/09 10:14:18;;;;;;;3.58;2.58;;;24.80;99.90;;;22.42;100.00;100228.78;3532203;39;101469;-87
2021/07/09 10:16:47;;;;;;;4.57;2.85;;;24.30;99.90;;;22.44;100.00;100229.38;3529859;39;102378;-82
2021/07/09 10:19:20;;;;;;;3.70;2.13;;;25.20;99.90;;;22.60;100.00;100222.41;3539333;39;100027;-82
2021/07/09 10:21:49;;;;;;;3.08;2.70;;;24.20;99.90;;;22.94;100.00;100220.72;3538361;39;100884;-82
2021/07/09 10:24:20;;;;;;;2.22;2.03;;;24.90;99.90;;;23.38;100.00;100212.84;3542530;39;101449;-87
2021/07/09 10:26:53;;;;;;;2.05;1.90;;;24.30;99.90;;;23.78;100.00;100215.53;3545208;39;100608;-86
2021/07/09 10:29:23;;;;;;;3.40;3.08;;;24.40;99.90;;;23.73;100.00;100207.28;3538356;39;100238;-83
2021/07/09 10:31:53;;;;;;;3.88;2.28;;;24.70;99.90;;;23.88;100.00;100199.31;3535784;39;101561;-84
2021/07/09 10:34:36;;;;;;;4.75;2.40;;;25.60;99.90;;;24.40;100.00;100186.25;3537010;39;101384;-82
2021/07/09 10:37:09;;;;;;;4.95;2.35;;;25.30;99.90;;;23.98;100.00;100180.38;3529052;39;102516;-85
2021/07/09 10:39:43;;;;;;;3.53;2.28;;;26.40;99.90;;;23.97;100.00;100170.53;3582521;22;100678;-83
2021/07/09 10:42:26;;;;;;;3.70;2.58;;;25.80;99.90;;;24.81;100.00;100151.25;3591033;22;102002;-82
2021/07/09 10:45:13;;;;;;;2.15;1.83;;;26.00;99.90;;;24.82;100.00;100148.25;3506401;39;103004;-83
2021/07/09 10:47:47;;;;;;;2.53;2.00;;;26.10;99.90;;;24.86;100.00;100140.34;3509063;39;101872;-83
2021/07/09 10:50:16;;;;;;;2.35;1.58;;;26.30;99.90;;;25.28;100.00;100135.94;3518566;39;100215;-82